sensor_id;sensor_type;location;lat;lon;timestamp;P1;durP1;ratioP1;P2;durP2;ratioP2
18796;SDS011;9526;52.612;13.300;2023-04-01T00:00:18;10.32;;;4.95;;
18796;SDS011;9526;52.612;13.300;2023-04-01T00:02:43;12.20;;;5.13;;
18796;SDS011;9526;52.612;13.300;2023-04-01T00:05:09;8.90;;;5.30;;
18796;SDS011;9526;52.612;13.300;2023-04-01T00:07:33;11.32;;;5.13;;
18796;SDS011;9526;52.612;13.300;2023-04-01T00:09:57;10.20;;;5.43;;
18796;SDS011;9526;52.612;13.300;2023-04-01T00:12:20;10.63;;;5.05;;
18796;SDS011;9526;52.612;13.300;2023-04-01T00:14:46;8.57;;;4.75;;
18796;SDS011;9526;52.612;13.300;2023-04-01T00:17:10;10.73;;;5.25;;
18796;SDS011;9526;52.612;13.300;2023-04-01T00:19:34;9.25;;;4.80;;
18796;SDS011;9526;52.612;13.300;2023-04-01T00:21:59;15.55;;;5.68;;
18796;SDS011;9526;52.612;13.300;2023-04-01T00:24:23;11.70;;;5.15;;
18796;SDS011;9526;52.612;13.300;2023-04-01T00:26:47;11.35;;;5.55;;
18796;SDS011;9526;52.612;13.300;2023-04-01T00:29:11;8.02;;;4.65;;
18796;SDS011;9526;52.612;13.300;2023-04-01T00:31:34;8.48;;;5.07;;
18796;SDS011;9526;52.612;13.300;2023-04-01T00:33:58;12.23;;;5.30;;
18796;SDS011;9526;52.612;13.300;2023-04-01T00:36:22;11.57;;;5.60;;
18796;SDS011;9526;52.612;13.300;2023-04-01T00:38:47;10.18;;;5.25;;
18796;SDS011;9526;52.612;13.300;2023-04-01T00:41:13;14.07;;;5.15;;
18796;SDS011;9526;52.612;13.300;2023-04-01T00:43:38;11.95;;;5.05;;
18796;SDS011;9526;52.612;13.300;2023-04-01T00:46:02;8.57;;;5.00;;
18796;SDS011;9526;52.612;13.300;2023-04-01T00:48:27;11.07;;;5.00;;
18796;SDS011;9526;52.612;13.300;2023-04-01T00:50:56;8.77;;;4.82;;
18796;SDS011;9526;52.612;13.300;2023-04-01T00:53:24;7.15;;;4.40;;
18796;SDS011;9526;52.612;13.300;2023-04-01T00:55:51;11.25;;;5.07;;
18796;SDS011;9526;52.612;13.300;2023-04-01T00:58:21;10.88;;;4.75;;
18796;SDS011;9526;52.612;13.300;2023-04-01T01:00:47;14.63;;;6.10;;
18796;SDS011;9526;52.612;13.300;2023-04-01T01:03:12;11.85;;;5.70;;
18796;SDS011;9526;52.612;13.300;2023-04-01T01:05:39;10.80;;;5.93;;
18796;SDS011;9526;52.612;13.300;2023-04-01T01:08:35;13.68;;;5.78;;
18796;SDS011;9526;52.612;13.300;2023-04-01T01:11:38;14.38;;;6.40;;
18796;SDS011;9526;52.612;13.300;2023-04-01T01:14:08;12.85;;;5.82;;
18796;SDS011;9526;52.612;13.300;2023-04-01T01:16:45;11.95;;;6.38;;
18796;SDS011;9526;52.612;13.300;2023-04-01T01:19:20;11.43;;;5.80;;
18796;SDS011;9526;52.612;13.300;2023-04-01T01:22:26;17.45;;;6.30;;
18796;SDS011;9526;52.612;13.300;2023-04-01T01:25:09;8.57;;;5.93;;
18796;SDS011;9526;52.612;13.300;2023-04-01T01:27:54;14.40;;;6.50;;
18796;SDS011;9526;52.612;13.300;2023-04-01T01:30:34;11.57;;;6.32;;
18796;SDS011;9526;52.612;13.300;2023-04-01T01:33:13;8.80;;;5.72;;
18796;SDS011;9526;52.612;13.300;2023-04-01T01:35:54;8.88;;;5.40;;
18796;SDS011;9526;52.612;13.300;2023-04-01T01:38:23;14.15;;;5.90;;
18796;SDS011;9526;52.612;13.300;2023-04-01T01:40:54;11.27;;;6.22;;
18796;SDS011;9526;52.612;13.300;2023-04-01T01:43:21;13.07;;;6.80;;
18796;SDS011;9526;52.612;13.300;2023-04-01T01:45:48;12.45;;;7.00;;
18796;SDS011;9526;52.612;13.300;2023-04-01T01:48:17;12.27;;;6.50;;
18796;SDS011;9526;52.612;13.300;2023-04-01T01:50:41;16.67;;;7.38;;
18796;SDS011;9526;52.612;13.300;2023-04-01T01:53:11;11.25;;;6.40;;
18796;SDS011;9526;52.612;13.300;2023-04-01T01:55:36;10.00;;;5.63;;
18796;SDS011;9526;52.612;13.300;2023-04-01T01:58:04;9.93;;;6.40;;
18796;SDS011;9526;52.612;13.300;2023-04-01T02:00:33;15.75;;;6.97;;
18796;SDS011;9526;52.612;13.300;2023-04-01T02:02:58;12.73;;;5.93;;
18796;SDS011;9526;52.612;13.300;2023-04-01T02:05:23;18.55;;;6.78;;
18796;SDS011;9526;52.612;13.300;2023-04-01T02:08:01;17.27;;;7.10;;
18796;SDS011;9526;52.612;13.300;2023-04-01T02:10:31;10.85;;;5.93;;
18796;SDS011;9526;52.612;13.300;2023-04-01T02:12:59;18.35;;;6.22;;
18796;SDS011;9526;52.612;13.300;2023-04-01T02:15:28;13.32;;;5.68;;
18796;SDS011;9526;52.612;13.300;2023-04-01T02:17:56;11.70;;;5.65;;
18796;SDS011;9526;52.612;13.300;2023-04-01T02:20:21;14.00;;;5.00;;
18796;SDS011;9526;52.612;13.300;2023-04-01T02:22:47;17.88;;;6.68;;
18796;SDS011;9526;52.612;13.300;2023-04-01T02:25:16;16.02;;;6.20;;
18796;SDS011;9526;52.612;13.300;2023-04-01T02:27:47;14.82;;;6.05;;
18796;SDS011;9526;52.612;13.300;2023-04-01T02:30:11;11.85;;;4.93;;
18796;SDS011;9526;52.612;13.300;2023-04-01T02:32:36;9.40;;;4.95;;
18796;SDS011;9526;52.612;13.300;2023-04-01T02:35:02;11.65;;;4.78;;
18796;SDS011;9526;52.612;13.300;2023-04-01T02:37:28;19.58;;;6.00;;
18796;SDS011;9526;52.612;13.300;2023-04-01T02:39:54;14.50;;;5.28;;
18796;SDS011;9526;52.612;13.300;2023-04-01T02:42:23;11.25;;;5.05;;
18796;SDS011;9526;52.612;13.300;2023-04-01T02:44:48;13.98;;;4.90;;
18796;SDS011;9526;52.612;13.300;2023-04-01T02:47:12;14.57;;;5.57;;
18796;SDS011;9526;52.612;13.300;2023-04-01T02:49:36;10.85;;;5.13;;
18796;SDS011;9526;52.612;13.300;2023-04-01T02:52:00;10.52;;;5.28;;
18796;SDS011;9526;52.612;13.300;2023-04-01T02:54:24;9.68;;;4.53;;
18796;SDS011;9526;52.612;13.300;2023-04-01T02:56:47;15.13;;;4.72;;
18796;SDS011;9526;52.612;13.300;2023-04-01T02:59:11;15.88;;;5.20;;
18796;SDS011;9526;52.612;13.300;2023-04-01T03:01:36;10.50;;;5.10;;
18796;SDS011;9526;52.612;13.300;2023-04-01T03:04:01;13.50;;;5.28;;
18796;SDS011;9526;52.612;13.300;2023-04-01T03:06:24;11.40;;;5.45;;
18796;SDS011;9526;52.612;13.300;2023-04-01T03:08:48;12.57;;;4.93;;
18796;SDS011;9526;52.612;13.300;2023-04-01T03:11:12;13.13;;;4.70;;
18796;SDS011;9526;52.612;13.300;2023-04-01T03:13:36;10.98;;;4.25;;
18796;SDS011;9526;52.612;13.300;2023-04-01T03:16:00;10.45;;;4.38;;
18796;SDS011;9526;52.612;13.300;2023-04-01T03:18:26;9.73;;;4.13;;
18796;SDS011;9526;52.612;13.300;2023-04-01T03:20:51;12.18;;;5.28;;
18796;SDS011;9526;52.612;13.300;2023-04-01T03:23:15;9.73;;;4.50;;
18796;SDS011;9526;52.612;13.300;2023-04-01T03:25:41;11.77;;;4.53;;
18796;SDS011;9526;52.612;13.300;2023-04-01T03:28:04;13.15;;;4.53;;
18796;SDS011;9526;52.612;13.300;2023-04-01T03:30:28;10.52;;;4.70;;
18796;SDS011;9526;52.612;13.300;2023-04-01T03:32:53;14.43;;;5.25;;
18796;SDS011;9526;52.612;13.300;2023-04-01T03:35:18;10.60;;;4.55;;
18796;SDS011;9526;52.612;13.300;2023-04-01T03:37:42;11.70;;;5.25;;
18796;SDS011;9526;52.612;13.300;2023-04-01T03:40:06;12.80;;;4.97;;
18796;SDS011;9526;52.612;13.300;2023-04-01T03:42:31;12.90;;;5.75;;
18796;SDS011;9526;52.612;13.300;2023-04-01T03:44:54;16.80;;;5.40;;
18796;SDS011;9526;52.612;13.300;2023-04-01T03:47:18;11.15;;;4.68;;
18796;SDS011;9526;52.612;13.300;2023-04-01T03:49:42;12.38;;;5.45;;
18796;SDS011;9526;52.612;13.300;2023-04-01T03:52:10;13.95;;;6.32;;
18796;SDS011;9526;52.612;13.300;2023-04-01T03:54:34;11.77;;;5.45;;
18796;SDS011;9526;52.612;13.300;2023-04-01T03:56:58;11.15;;;5.38;;
18796;SDS011;9526;52.612;13.300;2023-04-01T03:59:21;16.75;;;5.50;;
18796;SDS011;9526;52.612;13.300;2023-04-01T04:01:46;10.13;;;4.95;;
18796;SDS011;9526;52.612;13.300;2023-04-01T04:04:10;11.45;;;5.43;;
18796;SDS011;9526;52.612;13.300;2023-04-01T04:06:36;15.68;;;5.80;;
18796;SDS011;9526;52.612;13.300;2023-04-01T04:09:01;16.30;;;6.07;;
18796;SDS011;9526;52.612;13.300;2023-04-01T04:11:25;14.73;;;5.38;;
18796;SDS011;9526;52.612;13.300;2023-04-01T04:13:49;17.05;;;6.63;;
18796;SDS011;9526;52.612;13.300;2023-04-01T04:16:14;13.18;;;5.97;;
18796;SDS011;9526;52.612;13.300;2023-04-01T04:18:45;14.93;;;6.05;;
18796;SDS011;9526;52.612;13.300;2023-04-01T04:21:11;12.18;;;5.78;;
18796;SDS011;9526;52.612;13.300;2023-04-01T04:23:36;18.83;;;6.35;;
18796;SDS011;9526;52.612;13.300;2023-04-01T04:26:03;11.23;;;5.97;;
18796;SDS011;9526;52.612;13.300;2023-04-01T04:28:29;12.63;;;5.85;;
18796;SDS011;9526;52.612;13.300;2023-04-01T04:30:53;9.38;;;5.25;;
18796;SDS011;9526;52.612;13.300;2023-04-01T04:33:17;15.30;;;5.70;;
18796;SDS011;9526;52.612;13.300;2023-04-01T04:35:41;14.30;;;6.00;;
18796;SDS011;9526;52.612;13.300;2023-04-01T04:38:05;13.02;;;5.90;;
18796;SDS011;9526;52.612;13.300;2023-04-01T04:40:29;15.85;;;6.30;;
18796;SDS011;9526;52.612;13.300;2023-04-01T04:42:54;10.60;;;5.65;;
18796;SDS011;9526;52.612;13.300;2023-04-01T04:45:18;16.58;;;6.05;;
18796;SDS011;9526;52.612;13.300;2023-04-01T04:47:47;12.70;;;5.70;;
18796;SDS011;9526;52.612;13.300;2023-04-01T04:50:12;11.00;;;5.80;;
18796;SDS011;9526;52.612;13.300;2023-04-01T04:52:36;17.52;;;6.78;;
18796;SDS011;9526;52.612;13.300;2023-04-01T04:54:59;17.17;;;6.53;;
18796;SDS011;9526;52.612;13.300;2023-04-01T04:57:23;21.08;;;6.93;;
18796;SDS011;9526;52.612;13.300;2023-04-01T04:59:50;16.35;;;7.25;;
18796;SDS011;9526;52.612;13.300;2023-04-01T05:02:40;11.50;;;5.97;;
18796;SDS011;9526;52.612;13.300;2023-04-01T05:05:05;15.18;;;6.63;;
18796;SDS011;9526;52.612;13.300;2023-04-01T05:07:29;13.07;;;6.35;;
18796;SDS011;9526;52.612;13.300;2023-04-01T05:09:53;19.70;;;7.60;;
18796;SDS011;9526;52.612;13.300;2023-04-01T05:12:17;13.27;;;6.80;;
18796;SDS011;9526;52.612;13.300;2023-04-01T05:14:55;18.17;;;8.38;;
18796;SDS011;9526;52.612;13.300;2023-04-01T05:17:19;18.13;;;8.30;;
18796;SDS011;9526;52.612;13.300;2023-04-01T05:19:43;17.58;;;8.50;;
18796;SDS011;9526;52.612;13.300;2023-04-01T05:22:07;23.13;;;7.68;;
18796;SDS011;9526;52.612;13.300;2023-04-01T05:24:32;22.13;;;7.72;;
18796;SDS011;9526;52.612;13.300;2023-04-01T05:26:56;15.63;;;7.38;;
18796;SDS011;9526;52.612;13.300;2023-04-01T05:29:21;18.65;;;7.45;;
18796;SDS011;9526;52.612;13.300;2023-04-01T05:31:52;16.95;;;7.40;;
18796;SDS011;9526;52.612;13.300;2023-04-01T05:34:16;17.52;;;7.18;;
18796;SDS011;9526;52.612;13.300;2023-04-01T05:36:40;17.55;;;7.28;;
18796;SDS011;9526;52.612;13.300;2023-04-01T05:39:06;12.38;;;6.93;;
18796;SDS011;9526;52.612;13.300;2023-04-01T05:41:30;17.63;;;7.15;;
18796;SDS011;9526;52.612;13.300;2023-04-01T05:43:54;15.50;;;7.20;;
18796;SDS011;9526;52.612;13.300;2023-04-01T05:46:33;13.93;;;6.80;;
18796;SDS011;9526;52.612;13.300;2023-04-01T05:49:24;13.55;;;7.07;;
18796;SDS011;9526;52.612;13.300;2023-04-01T05:51:49;16.75;;;7.55;;
18796;SDS011;9526;52.612;13.300;2023-04-01T05:54:14;29.38;;;16.88;;
18796;SDS011;9526;52.612;13.300;2023-04-01T05:56:39;34.42;;;18.38;;
18796;SDS011;9526;52.612;13.300;2023-04-01T05:59:03;27.98;;;16.50;;
18796;SDS011;9526;52.612;13.300;2023-04-01T06:01:27;40.97;;;23.10;;
18796;SDS011;9526;52.612;13.300;2023-04-01T06:03:51;31.70;;;15.60;;
18796;SDS011;9526;52.612;13.300;2023-04-01T06:06:19;25.20;;;14.13;;
18796;SDS011;9526;52.612;13.300;2023-04-01T06:08:50;24.35;;;12.52;;
18796;SDS011;9526;52.612;13.300;2023-04-01T06:11:18;23.92;;;12.02;;
18796;SDS011;9526;52.612;13.300;2023-04-01T06:14:00;20.02;;;10.13;;
18796;SDS011;9526;52.612;13.300;2023-04-01T06:16:54;17.95;;;9.90;;
18796;SDS011;9526;52.612;13.300;2023-04-01T06:19:36;17.40;;;9.50;;
18796;SDS011;9526;52.612;13.300;2023-04-01T06:22:22;19.27;;;9.35;;
18796;SDS011;9526;52.612;13.300;2023-04-01T06:25:18;15.35;;;8.60;;
18796;SDS011;9526;52.612;13.300;2023-04-01T06:28:23;17.33;;;9.07;;
18796;SDS011;9526;52.612;13.300;2023-04-01T06:31:40;17.63;;;8.98;;
18796;SDS011;9526;52.612;13.300;2023-04-01T06:34:44;16.10;;;7.85;;
18796;SDS011;9526;52.612;13.300;2023-04-01T06:37:28;16.63;;;7.43;;
18796;SDS011;9526;52.612;13.300;2023-04-01T06:40:17;13.85;;;7.28;;
18796;SDS011;9526;52.612;13.300;2023-04-01T06:43:07;18.23;;;8.32;;
18796;SDS011;9526;52.612;13.300;2023-04-01T06:46:15;20.55;;;9.35;;
18796;SDS011;9526;52.612;13.300;2023-04-01T06:49:22;18.23;;;9.63;;
18796;SDS011;9526;52.612;13.300;2023-04-01T06:52:18;18.52;;;10.07;;
18796;SDS011;9526;52.612;13.300;2023-04-01T06:55:29;17.50;;;8.48;;
18796;SDS011;9526;52.612;13.300;2023-04-01T06:58:10;16.98;;;8.82;;
18796;SDS011;9526;52.612;13.300;2023-04-01T07:00:43;23.13;;;8.95;;
18796;SDS011;9526;52.612;13.300;2023-04-01T07:03:12;10.95;;;7.72;;
18796;SDS011;9526;52.612;13.300;2023-04-01T07:05:43;15.27;;;7.75;;
18796;SDS011;9526;52.612;13.300;2023-04-01T07:08:10;14.13;;;7.90;;
18796;SDS011;9526;52.612;13.300;2023-04-01T07:10:41;30.58;;;9.50;;
18796;SDS011;9526;52.612;13.300;2023-04-01T07:13:29;23.48;;;10.73;;
18796;SDS011;9526;52.612;13.300;2023-04-01T07:16:08;24.95;;;8.10;;
18796;SDS011;9526;52.612;13.300;2023-04-01T07:18:39;16.73;;;6.63;;
18796;SDS011;9526;52.612;13.300;2023-04-01T07:21:09;10.80;;;5.90;;
18796;SDS011;9526;52.612;13.300;2023-04-01T07:23:44;12.18;;;7.40;;
18796;SDS011;9526;52.612;13.300;2023-04-01T07:26:30;13.57;;;7.82;;
18796;SDS011;9526;52.612;13.300;2023-04-01T07:29:00;13.43;;;8.68;;
18796;SDS011;9526;52.612;13.300;2023-04-01T07:31:39;14.15;;;7.75;;
18796;SDS011;9526;52.612;13.300;2023-04-01T07:34:35;10.77;;;7.47;;
18796;SDS011;9526;52.612;13.300;2023-04-01T07:37:12;13.98;;;7.75;;
18796;SDS011;9526;52.612;13.300;2023-04-01T07:39:48;13.32;;;7.95;;
18796;SDS011;9526;52.612;13.300;2023-04-01T07:42:28;11.75;;;7.38;;
18796;SDS011;9526;52.612;13.300;2023-04-01T07:45:02;10.95;;;6.47;;
18796;SDS011;9526;52.612;13.300;2023-04-01T07:47:34;8.43;;;4.97;;
18796;SDS011;9526;52.612;13.300;2023-04-01T07:50:16;6.63;;;4.18;;
18796;SDS011;9526;52.612;13.300;2023-04-01T07:52:47;9.90;;;4.22;;
18796;SDS011;9526;52.612;13.300;2023-04-01T07:55:23;6.35;;;4.30;;
18796;SDS011;9526;52.612;13.300;2023-04-01T07:57:56;6.00;;;3.72;;
18796;SDS011;9526;52.612;13.300;2023-04-01T08:00:33;6.78;;;3.83;;
18796;SDS011;9526;52.612;13.300;2023-04-01T08:03:20;5.40;;;3.80;;
18796;SDS011;9526;52.612;13.300;2023-04-01T08:05:57;6.22;;;3.67;;
18796;SDS011;9526;52.612;13.300;2023-04-01T08:08:29;6.80;;;3.97;;
18796;SDS011;9526;52.612;13.300;2023-04-01T08:11:34;6.75;;;4.13;;
18796;SDS011;9526;52.612;13.300;2023-04-01T08:14:29;6.55;;;4.03;;
18796;SDS011;9526;52.612;13.300;2023-04-01T08:17:20;9.13;;;4.50;;
18796;SDS011;9526;52.612;13.300;2023-04-01T08:19:56;6.43;;;4.03;;
18796;SDS011;9526;52.612;13.300;2023-04-01T08:22:34;9.43;;;4.80;;
18796;SDS011;9526;52.612;13.300;2023-04-01T08:25:27;9.02;;;4.82;;
18796;SDS011;9526;52.612;13.300;2023-04-01T08:27:56;7.93;;;4.68;;
18796;SDS011;9526;52.612;13.300;2023-04-01T08:30:28;7.43;;;4.90;;
18796;SDS011;9526;52.612;13.300;2023-04-01T08:33:00;10.07;;;5.28;;
18796;SDS011;9526;52.612;13.300;2023-04-01T08:35:36;9.10;;;5.93;;
18796;SDS011;9526;52.612;13.300;2023-04-01T08:38:05;10.70;;;6.53;;
18796;SDS011;9526;52.612;13.300;2023-04-01T08:40:59;10.23;;;6.78;;
18796;SDS011;9526;52.612;13.300;2023-04-01T08:44:07;9.45;;;5.80;;
18796;SDS011;9526;52.612;13.300;2023-04-01T08:47:28;12.45;;;6.38;;
18796;SDS011;9526;52.612;13.300;2023-04-01T08:50:12;10.90;;;6.88;;
18796;SDS011;9526;52.612;13.300;2023-04-01T08:53:03;15.48;;;9.27;;
18796;SDS011;9526;52.612;13.300;2023-04-01T08:55:40;13.13;;;9.40;;
18796;SDS011;9526;52.612;13.300;2023-04-01T09:01:42;12.85;;;8.85;;
18796;SDS011;9526;52.612;13.300;2023-04-01T09:04:49;11.20;;;8.25;;
18796;SDS011;9526;52.612;13.300;2023-04-01T09:07:46;12.10;;;7.82;;
18796;SDS011;9526;52.612;13.300;2023-04-01T09:10:41;13.68;;;9.02;;
18796;SDS011;9526;52.612;13.300;2023-04-01T09:13:56;13.98;;;8.77;;
18796;SDS011;9526;52.612;13.300;2023-04-01T09:17:20;13.35;;;9.35;;
18796;SDS011;9526;52.612;13.300;2023-04-01T09:20:17;13.38;;;9.80;;
18796;SDS011;9526;52.612;13.300;2023-04-01T09:23:09;12.68;;;9.27;;
18796;SDS011;9526;52.612;13.300;2023-04-01T09:25:53;12.55;;;9.00;;
18796;SDS011;9526;52.612;13.300;2023-04-01T09:28:33;13.07;;;9.40;;
18796;SDS011;9526;52.612;13.300;2023-04-01T09:31:09;13.07;;;9.68;;
18796;SDS011;9526;52.612;13.300;2023-04-01T09:34:43;13.80;;;9.20;;
18796;SDS011;9526;52.612;13.300;2023-04-01T09:37:25;15.70;;;9.93;;
18796;SDS011;9526;52.612;13.300;2023-04-01T09:40:17;13.23;;;9.15;;
18796;SDS011;9526;52.612;13.300;2023-04-01T09:43:06;14.65;;;9.30;;
18796;SDS011;9526;52.612;13.300;2023-04-01T09:45:58;13.98;;;9.15;;
18796;SDS011;9526;52.612;13.300;2023-04-01T09:48:43;12.20;;;8.73;;
18796;SDS011;9526;52.612;13.300;2023-04-01T09:51:39;14.05;;;9.05;;
18796;SDS011;9526;52.612;13.300;2023-04-01T09:54:17;12.80;;;9.00;;
18796;SDS011;9526;52.612;13.300;2023-04-01T09:57:10;13.02;;;8.68;;
18796;SDS011;9526;52.612;13.300;2023-04-01T10:03:37;9.63;;;7.38;;
18796;SDS011;9526;52.612;13.300;2023-04-01T10:10:20;9.00;;;6.60;;
18796;SDS011;9526;52.612;13.300;2023-04-01T10:13:18;9.23;;;7.38;;
18796;SDS011;9526;52.612;13.300;2023-04-01T10:16:19;10.50;;;7.47;;
18796;SDS011;9526;52.612;13.300;2023-04-01T10:19:23;8.65;;;7.32;;
18796;SDS011;9526;52.612;13.300;2023-04-01T10:22:31;9.63;;;7.93;;
18796;SDS011;9526;52.612;13.300;2023-04-01T10:26:06;10.20;;;8.02;;
18796;SDS011;9526;52.612;13.300;2023-04-01T10:29:31;8.90;;;6.97;;
18796;SDS011;9526;52.612;13.300;2023-04-01T10:35:51;7.78;;;6.72;;
18796;SDS011;9526;52.612;13.300;2023-04-01T10:38:51;7.85;;;6.20;;
18796;SDS011;9526;52.612;13.300;2023-04-01T10:42:01;8.48;;;7.35;;
18796;SDS011;9526;52.612;13.300;2023-04-01T10:48:53;8.70;;;6.80;;
18796;SDS011;9526;52.612;13.300;2023-04-01T11:09:43;7.20;;;6.30;;
18796;SDS011;9526;52.612;13.300;2023-04-01T11:12:45;8.10;;;5.88;;
18796;SDS011;9526;52.612;13.300;2023-04-01T11:22:14;7.03;;;5.93;;
18796;SDS011;9526;52.612;13.300;2023-04-01T11:25:17;8.88;;;6.88;;
18796;SDS011;9526;52.612;13.300;2023-04-01T11:28:49;7.97;;;6.90;;
18796;SDS011;9526;52.612;13.300;2023-04-01T11:31:45;8.43;;;7.30;;
18796;SDS011;9526;52.612;13.300;2023-04-01T11:34:24;7.75;;;6.90;;
18796;SDS011;9526;52.612;13.300;2023-04-01T11:37:06;9.57;;;7.68;;
18796;SDS011;9526;52.612;13.300;2023-04-01T11:40:05;9.40;;;7.43;;
18796;SDS011;9526;52.612;13.300;2023-04-01T11:43:06;8.13;;;6.78;;
18796;SDS011;9526;52.612;13.300;2023-04-01T11:46:15;11.00;;;8.73;;
18796;SDS011;9526;52.612;13.300;2023-04-01T11:48:51;9.02;;;7.35;;
18796;SDS011;9526;52.612;13.300;2023-04-01T11:51:44;10.25;;;7.63;;
18796;SDS011;9526;52.612;13.300;2023-04-01T11:54:39;10.55;;;8.45;;
18796;SDS011;9526;52.612;13.300;2023-04-01T11:57:38;10.93;;;8.90;;
18796;SDS011;9526;52.612;13.300;2023-04-01T12:00:35;12.48;;;9.50;;
18796;SDS011;9526;52.612;13.300;2023-04-01T12:03:29;11.18;;;9.02;;
18796;SDS011;9526;52.612;13.300;2023-04-01T12:06:41;12.25;;;9.82;;
18796;SDS011;9526;52.612;13.300;2023-04-01T12:09:12;11.10;;;9.02;;
18796;SDS011;9526;52.612;13.300;2023-04-01T12:11:52;12.50;;;10.15;;
18796;SDS011;9526;52.612;13.300;2023-04-01T12:14:35;11.65;;;9.05;;
18796;SDS011;9526;52.612;13.300;2023-04-01T12:17:07;12.23;;;9.15;;
18796;SDS011;9526;52.612;13.300;2023-04-01T12:19:53;13.20;;;9.57;;
18796;SDS011;9526;52.612;13.300;2023-04-01T12:22:31;12.43;;;9.85;;
18796;SDS011;9526;52.612;13.300;2023-04-01T12:25:07;13.35;;;10.05;;
18796;SDS011;9526;52.612;13.300;2023-04-01T12:28:01;11.93;;;10.05;;
18796;SDS011;9526;52.612;13.300;2023-04-01T12:30:44;13.95;;;9.77;;
18796;SDS011;9526;52.612;13.300;2023-04-01T12:36:25;15.77;;;10.63;;
18796;SDS011;9526;52.612;13.300;2023-04-01T12:39:22;14.27;;;9.90;;
18796;SDS011;9526;52.612;13.300;2023-04-01T12:42:37;12.27;;;9.45;;
18796;SDS011;9526;52.612;13.300;2023-04-01T12:45:35;13.25;;;9.88;;
18796;SDS011;9526;52.612;13.300;2023-04-01T12:48:12;14.93;;;11.18;;
18796;SDS011;9526;52.612;13.300;2023-04-01T12:51:22;15.20;;;10.55;;
18796;SDS011;9526;52.612;13.300;2023-04-01T12:54:18;11.57;;;8.95;;
18796;SDS011;9526;52.612;13.300;2023-04-01T12:57:14;13.88;;;10.00;;
18796;SDS011;9526;52.612;13.300;2023-04-01T12:59:58;12.60;;;8.70;;
18796;SDS011;9526;52.612;13.300;2023-04-01T13:02:38;10.93;;;7.30;;
18796;SDS011;9526;52.612;13.300;2023-04-01T13:08:17;11.70;;;9.15;;
18796;SDS011;9526;52.612;13.300;2023-04-01T13:11:02;12.48;;;9.27;;
18796;SDS011;9526;52.612;13.300;2023-04-01T13:13:48;11.85;;;9.65;;
18796;SDS011;9526;52.612;13.300;2023-04-01T13:16:52;13.82;;;9.88;;
18796;SDS011;9526;52.612;13.300;2023-04-01T13:19:21;12.75;;;9.27;;
18796;SDS011;9526;52.612;13.300;2023-04-01T13:21:56;13.00;;;9.55;;
18796;SDS011;9526;52.612;13.300;2023-04-01T13:24:31;13.30;;;9.00;;
18796;SDS011;9526;52.612;13.300;2023-04-01T13:27:07;12.98;;;8.65;;
18796;SDS011;9526;52.612;13.300;2023-04-01T13:29:39;10.45;;;7.43;;
18796;SDS011;9526;52.612;13.300;2023-04-01T13:32:15;12.23;;;7.68;;
18796;SDS011;9526;52.612;13.300;2023-04-01T13:35:10;9.18;;;6.22;;
18796;SDS011;9526;52.612;13.300;2023-04-01T13:37:49;9.32;;;6.10;;
18796;SDS011;9526;52.612;13.300;2023-04-01T13:40:33;6.95;;;4.95;;
18796;SDS011;9526;52.612;13.300;2023-04-01T13:43:16;6.95;;;5.22;;
18796;SDS011;9526;52.612;13.300;2023-04-01T13:45:50;7.20;;;4.90;;
18796;SDS011;9526;52.612;13.300;2023-04-01T13:48:34;7.15;;;4.78;;
18796;SDS011;9526;52.612;13.300;2023-04-01T13:51:27;7.28;;;4.82;;
18796;SDS011;9526;52.612;13.300;2023-04-01T13:54:22;7.00;;;4.18;;
18796;SDS011;9526;52.612;13.300;2023-04-01T13:57:10;5.53;;;3.60;;
18796;SDS011;9526;52.612;13.300;2023-04-01T13:59:55;5.68;;;4.05;;
18796;SDS011;9526;52.612;13.300;2023-04-01T14:05:52;5.53;;;4.18;;
18796;SDS011;9526;52.612;13.300;2023-04-01T14:08:29;4.68;;;3.83;;
18796;SDS011;9526;52.612;13.300;2023-04-01T14:11:10;6.28;;;4.63;;
18796;SDS011;9526;52.612;13.300;2023-04-01T14:13:44;5.30;;;3.90;;
18796;SDS011;9526;52.612;13.300;2023-04-01T14:19:29;5.43;;;4.22;;
18796;SDS011;9526;52.612;13.300;2023-04-01T14:22:13;5.55;;;4.28;;
18796;SDS011;9526;52.612;13.300;2023-04-01T14:24:53;7.00;;;4.70;;
18796;SDS011;9526;52.612;13.300;2023-04-01T14:27:41;6.20;;;3.88;;
18796;SDS011;9526;52.612;13.300;2023-04-01T14:33:12;7.63;;;4.40;;
18796;SDS011;9526;52.612;13.300;2023-04-01T14:35:50;8.02;;;4.25;;
18796;SDS011;9526;52.612;13.300;2023-04-01T14:38:42;5.22;;;3.92;;
18796;SDS011;9526;52.612;13.300;2023-04-01T14:41:19;5.63;;;3.58;;
18796;SDS011;9526;52.612;13.300;2023-04-01T14:46:50;6.13;;;4.20;;
18796;SDS011;9526;52.612;13.300;2023-04-01T14:49:53;7.72;;;4.75;;
18796;SDS011;9526;52.612;13.300;2023-04-01T14:52:30;7.07;;;4.70;;
18796;SDS011;9526;52.612;13.300;2023-04-01T14:54:58;6.82;;;4.28;;
18796;SDS011;9526;52.612;13.300;2023-04-01T14:57:23;9.90;;;5.80;;
18796;SDS011;9526;52.612;13.300;2023-04-01T14:59:51;6.53;;;4.85;;
18796;SDS011;9526;52.612;13.300;2023-04-01T15:02:24;9.95;;;5.63;;
18796;SDS011;9526;52.612;13.300;2023-04-01T15:05:32;8.15;;;5.45;;
18796;SDS011;9526;52.612;13.300;2023-04-01T15:08:09;9.38;;;5.00;;
18796;SDS011;9526;52.612;13.300;2023-04-01T15:10:43;6.70;;;4.85;;
18796;SDS011;9526;52.612;13.300;2023-04-01T15:13:53;10.80;;;5.63;;
18796;SDS011;9526;52.612;13.300;2023-04-01T15:16:46;7.13;;;5.10;;
18796;SDS011;9526;52.612;13.300;2023-04-01T15:19:22;7.88;;;4.65;;
18796;SDS011;9526;52.612;13.300;2023-04-01T15:22:13;7.05;;;4.97;;
18796;SDS011;9526;52.612;13.300;2023-04-01T15:24:56;6.03;;;3.45;;
18796;SDS011;9526;52.612;13.300;2023-04-01T15:27:33;5.28;;;4.38;;
18796;SDS011;9526;52.612;13.300;2023-04-01T15:30:12;7.28;;;4.70;;
18796;SDS011;9526;52.612;13.300;2023-04-01T15:33:02;9.02;;;5.50;;
18796;SDS011;9526;52.612;13.300;2023-04-01T15:35:52;6.45;;;5.10;;
18796;SDS011;9526;52.612;13.300;2023-04-01T15:38:30;7.57;;;4.85;;
18796;SDS011;9526;52.612;13.300;2023-04-01T15:41:03;7.78;;;5.45;;
18796;SDS011;9526;52.612;13.300;2023-04-01T15:43:40;8.23;;;4.80;;
18796;SDS011;9526;52.612;13.300;2023-04-01T15:46:09;7.18;;;5.40;;
18796;SDS011;9526;52.612;13.300;2023-04-01T15:48:50;7.38;;;5.18;;
18796;SDS011;9526;52.612;13.300;2023-04-01T15:51:41;7.22;;;5.60;;
18796;SDS011;9526;52.612;13.300;2023-04-01T15:54:40;10.90;;;5.88;;
18796;SDS011;9526;52.612;13.300;2023-04-01T15:57:25;7.68;;;5.80;;
18796;SDS011;9526;52.612;13.300;2023-04-01T16:00:02;6.40;;;3.20;;
18796;SDS011;9526;52.612;13.300;2023-04-01T16:02:42;9.02;;;5.80;;
18796;SDS011;9526;52.612;13.300;2023-04-01T16:05:21;11.30;;;5.75;;
18796;SDS011;9526;52.612;13.300;2023-04-01T16:11:06;8.48;;;6.07;;
18796;SDS011;9526;52.612;13.300;2023-04-01T16:13:48;7.35;;;4.90;;
18796;SDS011;9526;52.612;13.300;2023-04-01T16:16:31;11.10;;;5.07;;
18796;SDS011;9526;52.612;13.300;2023-04-01T16:19:13;8.52;;;5.72;;
18796;SDS011;9526;52.612;13.300;2023-04-01T16:22:00;8.95;;;5.68;;
18796;SDS011;9526;52.612;13.300;2023-04-01T16:24:32;9.30;;;5.47;;
18796;SDS011;9526;52.612;13.300;2023-04-01T16:27:02;7.47;;;4.63;;
18796;SDS011;9526;52.612;13.300;2023-04-01T16:29:32;7.38;;;4.75;;
18796;SDS011;9526;52.612;13.300;2023-04-01T16:32:13;8.02;;;4.47;;
18796;SDS011;9526;52.612;13.300;2023-04-01T16:34:55;7.38;;;4.28;;
18796;SDS011;9526;52.612;13.300;2023-04-01T16:37:39;11.80;;;4.95;;
18796;SDS011;9526;52.612;13.300;2023-04-01T16:40:13;7.55;;;4.25;;
18796;SDS011;9526;52.612;13.300;2023-04-01T16:42:50;7.00;;;4.25;;
18796;SDS011;9526;52.612;13.300;2023-04-01T16:45:19;5.88;;;4.43;;
18796;SDS011;9526;52.612;13.300;2023-04-01T16:47:54;7.10;;;4.68;;